TAF Text Data
IDs:
Format:
Raw Decoded Include METAR

Data at: 0128 UTC 29 Nov 2020

KLEB 290014Z 2900/2924 19002KT P6SM FEW050
  TEMPO 2900/2904 2SM BR SCT002